createdAt,value
2023-04-08T00:00:14.274Z,232.43
2023-04-08T00:01:09.253Z,231.78
2023-04-08T00:02:04.497Z,231.94
2023-04-08T00:03:01.089Z,230.96
2023-04-08T00:03:56.351Z,231.61
2023-04-08T00:04:52.011Z,230.48
2023-04-08T00:05:47.230Z,228.39
2023-04-08T00:06:42.405Z,227.12
2023-04-08T00:07:38.165Z,224.79
2023-04-08T00:08:33.323Z,223.57
2023-04-08T00:09:28.509Z,224.02
2023-04-08T00:10:24.774Z,222.50
2023-04-08T00:11:19.953Z,221.60
2023-04-08T00:12:15.663Z,221.90
2023-04-08T00:13:10.820Z,224.48
2023-04-08T00:14:05.889Z,227.44
2023-04-08T00:15:01.934Z,226.50
2023-04-08T00:15:56.990Z,225.10
2023-04-08T00:16:52.898Z,225.72
2023-04-08T00:17:48.035Z,225.41
2023-04-08T00:18:43.195Z,224.95
2023-04-08T00:19:38.351Z,224.79
2023-04-08T00:20:33.851Z,224.18
2023-04-08T00:21:29.182Z,222.05
2023-04-08T00:22:24.336Z,220.12
2023-04-08T00:23:19.522Z,221.75
2023-04-08T00:24:14.686Z,222.81
2023-04-08T00:25:10.996Z,222.65
2023-04-08T00:26:06.155Z,223.87
2023-04-08T00:27:01.334Z,225.56
2023-04-08T00:28:00.705Z,226.18
2023-04-08T00:28:55.710Z,227.44
2023-04-08T00:29:51.073Z,229.67
2023-04-08T00:30:45.989Z,233.26
2023-04-08T00:31:41.150Z,235.77
2023-04-08T00:32:36.455Z,238.34
2023-04-08T00:33:32.608Z,238.52
2023-04-08T00:34:27.823Z,239.04
2023-04-08T00:35:23.209Z,240.26
2023-04-08T00:36:18.110Z,240.26
2023-04-08T00:37:13.163Z,238.34
2023-04-08T00:38:08.189Z,238.34
2023-04-08T00:39:03.265Z,238.17
2023-04-08T00:39:58.489Z,237.48
2023-04-08T00:40:53.458Z,235.94
2023-04-08T00:41:48.503Z,235.94
2023-04-08T00:42:43.602Z,235.94
2023-04-08T00:43:38.709Z,236.28
2023-04-08T00:44:33.909Z,234.93
2023-04-08T00:45:28.709Z,233.10
2023-04-08T00:46:23.828Z,230.96
2023-04-08T00:47:18.820Z,230.31
2023-04-08T00:48:13.893Z,228.55
2023-04-08T00:49:09.124Z,230.48
2023-04-08T00:50:04.311Z,229.19
2023-04-08T00:50:59.228Z,232.43
2023-04-08T00:51:54.317Z,231.29
2023-04-08T00:52:52.624Z,229.83
2023-04-08T00:53:47.738Z,229.51
2023-04-08T00:54:42.951Z,231.94
2023-04-08T00:55:37.936Z,232.93
2023-04-08T00:56:33.028Z,232.76
2023-04-08T00:57:28.261Z,231.78
2023-04-08T00:58:23.361Z,232.93
2023-04-08T00:59:18.490Z,231.94
2023-04-08T01:00:13.466Z,232.76
2023-04-08T01:01:08.588Z,236.28
2023-04-08T01:02:03.694Z,236.97
2023-04-08T01:02:58.808Z,237.14
2023-04-08T01:03:53.836Z,236.62
2023-04-08T01:04:48.998Z,237.82
2023-04-08T01:05:43.795Z,236.28
2023-04-08T01:06:38.928Z,235.77
2023-04-08T01:07:33.994Z,235.27
2023-04-08T01:08:29.086Z,236.80
2023-04-08T01:09:26.902Z,237.65
2023-04-08T01:10:21.888Z,238.00
2023-04-08T01:11:16.952Z,239.74
2023-04-08T01:12:12.078Z,237.31
2023-04-08T01:13:07.164Z,233.10
2023-04-08T01:14:02.371Z,229.35
2023-04-08T01:14:57.615Z,225.25
2023-04-08T01:15:52.598Z,222.81
2023-04-08T01:16:47.555Z,219.53
2023-04-08T01:17:42.646Z,217.63
2023-04-08T01:18:37.606Z,217.06
2023-04-08T01:19:32.916Z,217.06
2023-04-08T01:20:27.830Z,215.77
2023-04-08T01:21:22.951Z,215.91
2023-04-08T01:22:18.018Z,217.20
2023-04-08T01:23:13.102Z,217.49
2023-04-08T01:24:08.224Z,216.77
2023-04-08T01:25:03.185Z,216.06
2023-04-08T01:25:58.268Z,215.49
2023-04-08T01:26:53.446Z,216.06
2023-04-08T01:27:48.381Z,215.91
2023-04-08T01:28:43.406Z,215.07
2023-04-08T01:29:38.655Z,211.87
2023-04-08T01:30:35.948Z,209.04
2023-04-08T01:31:30.931Z,208.64
2023-04-08T01:32:26.192Z,204.35
2023-04-08T01:33:21.385Z,202.46
2023-04-08T01:34:16.784Z,200.85
2023-04-08T01:35:11.869Z,199.51
2023-04-08T01:36:07.155Z,199.75
2023-04-08T01:37:02.248Z,199.75
2023-04-08T01:37:57.488Z,200.36
2023-04-08T01:38:52.746Z,200.11
2023-04-08T01:39:48.113Z,199.26
2023-04-08T01:40:43.314Z,198.06
2023-04-08T01:41:38.418Z,197.70
2023-04-08T01:42:33.631Z,197.35
2023-04-08T01:43:28.890Z,198.66
2023-04-08T01:44:24.148Z,198.30
2023-04-08T01:45:19.549Z,197.58
2023-04-08T01:46:14.676Z,196.75
2023-04-08T01:47:09.880Z,195.46
2023-04-08T01:48:05.208Z,193.85
2023-04-08T01:49:00.349Z,192.71
2023-04-08T01:49:55.701Z,192.93
2023-04-08T01:50:50.836Z,192.60
2023-04-08T01:51:46.052Z,191.58
2023-04-08T01:52:41.300Z,192.26
2023-04-08T01:53:36.489Z,192.15
2023-04-08T01:54:31.727Z,193.28
2023-04-08T01:55:27.136Z,191.47
2023-04-08T01:56:22.241Z,193.16
2023-04-08T01:57:17.611Z,193.96
2023-04-08T01:58:12.679Z,194.77
2023-04-08T01:59:07.909Z,195.93
2023-04-08T02:00:03.166Z,195.46
2023-04-08T02:00:58.398Z,195.35
2023-04-08T02:01:53.863Z,198.42
2023-04-08T02:02:48.920Z,199.14
2023-04-08T02:03:44.151Z,199.02
2023-04-08T02:04:39.418Z,198.78
2023-04-08T02:05:34.581Z,200.11
2023-04-08T02:06:29.757Z,201.59
2023-04-08T02:07:25.019Z,201.71
2023-04-08T02:08:20.263Z,200.36
2023-04-08T02:09:15.517Z,201.71
2023-04-08T02:10:10.892Z,206.54
2023-04-08T02:11:06.004Z,206.54
2023-04-08T02:12:01.249Z,206.41
2023-04-08T02:12:56.479Z,204.99
2023-04-08T02:13:51.813Z,201.96
2023-04-08T02:14:47.065Z,200.73
2023-04-08T02:15:42.138Z,199.38
2023-04-08T02:16:37.490Z,198.66
2023-04-08T02:17:34.036Z,197.11
2023-04-08T02:18:27.961Z,196.28
2023-04-08T02:19:23.067Z,198.18
2023-04-08T02:20:18.312Z,197.58
2023-04-08T02:21:13.388Z,198.06
2023-04-08T02:22:08.772Z,198.78
2023-04-08T02:23:03.969Z,199.26
2023-04-08T02:23:59.321Z,199.99
2023-04-08T02:24:54.551Z,199.02
2023-04-08T02:25:49.669Z,197.23
2023-04-08T02:26:44.894Z,197.11
2023-04-08T02:27:40.108Z,193.96
2023-04-08T02:28:35.358Z,192.26
2023-04-08T02:29:30.480Z,191.36
2023-04-08T02:30:25.584Z,187.75
2023-04-08T02:31:20.698Z,186.57
2023-04-08T02:32:15.789Z,186.15
2023-04-08T02:33:10.937Z,184.89
2023-04-08T02:34:06.099Z,185.31
2023-04-08T02:35:01.403Z,185.21
2023-04-08T02:35:56.248Z,184.19
2023-04-08T02:36:51.313Z,185.21
2023-04-08T02:37:46.405Z,183.78
2023-04-08T02:38:41.744Z,184.19
2023-04-08T02:39:36.668Z,183.58
2023-04-08T02:40:31.982Z,184.19
2023-04-08T02:41:26.797Z,183.38
2023-04-08T02:42:21.923Z,182.58
2023-04-08T02:43:16.996Z,182.58
2023-04-08T02:44:12.109Z,182.58
2023-04-08T02:45:07.347Z,182.38
2023-04-08T02:46:02.497Z,181.78
2023-04-08T02:46:57.265Z,180.80
2023-04-08T02:47:52.452Z,181.98
2023-04-08T02:48:47.420Z,183.99
2023-04-08T02:49:42.632Z,185.01
2023-04-08T02:50:37.597Z,185.21
2023-04-08T02:51:32.830Z,184.99
2023-04-08T02:52:28.066Z,186.04
2023-04-08T02:53:23.338Z,186.36
2023-04-08T02:54:18.552Z,186.57
2023-04-08T02:55:14.429Z,187.32
2023-04-08T02:56:09.654Z,186.68
2023-04-08T02:57:04.934Z,186.57
2023-04-08T02:58:01.110Z,185.73
2023-04-08T02:58:56.397Z,185.83
2023-04-08T02:59:52.338Z,184.89
2023-04-08T03:00:47.473Z,185.83
2023-04-08T03:01:42.621Z,186.57
2023-04-08T03:02:38.597Z,186.15
2023-04-08T03:03:33.696Z,186.36
2023-04-08T03:04:29.570Z,186.68
2023-04-08T03:05:24.656Z,187.21
2023-04-08T03:06:20.070Z,188.61
2023-04-08T03:07:15.857Z,189.92
2023-04-08T03:08:11.135Z,190.14
2023-04-08T03:09:06.343Z,190.36
2023-04-08T03:10:02.893Z,190.80
2023-04-08T03:10:57.988Z,192.03
2023-04-08T03:11:53.829Z,195.00
2023-04-08T03:12:48.916Z,197.23
2023-04-08T03:13:44.184Z,199.26
2023-04-08T03:14:40.167Z,200.60
2023-04-08T03:15:35.277Z,202.96
2023-04-08T03:16:31.206Z,204.48
2023-04-08T03:17:26.314Z,207.06
2023-04-08T03:18:21.658Z,207.85
2023-04-08T03:19:17.523Z,207.06
2023-04-08T03:20:12.770Z,206.80
2023-04-08T03:21:08.149Z,208.64
2023-04-08T03:22:04.223Z,207.85
2023-04-08T03:22:59.493Z,207.06
2023-04-08T03:23:55.320Z,207.85
2023-04-08T03:24:50.687Z,209.84
2023-04-08T03:25:45.917Z,209.71
2023-04-08T03:26:41.649Z,208.64
2023-04-08T03:27:36.852Z,208.77
2023-04-08T03:28:32.656Z,209.44
2023-04-08T03:29:27.838Z,211.05
2023-04-08T03:30:23.204Z,209.30
2023-04-08T03:31:18.981Z,209.44
2023-04-08T03:32:14.137Z,209.97
2023-04-08T03:33:09.397Z,212.28
2023-04-08T03:34:05.723Z,211.60
2023-04-08T03:35:00.866Z,212.15
2023-04-08T03:35:56.659Z,211.87
2023-04-08T03:36:51.910Z,213.94
2023-04-08T03:37:47.134Z,215.91
2023-04-08T03:38:43.082Z,217.92
2023-04-08T03:39:38.067Z,217.78
2023-04-08T03:40:33.967Z,216.20
2023-04-08T03:41:29.170Z,216.20
2023-04-08T03:42:24.456Z,215.21
2023-04-08T03:43:20.229Z,214.36
2023-04-08T03:44:15.718Z,213.53
2023-04-08T03:45:10.786Z,206.15
2023-04-08T03:46:07.191Z,200.24
2023-04-08T03:47:02.272Z,202.46
2023-04-08T03:47:58.070Z,203.34
2023-04-08T03:48:53.290Z,203.59
2023-04-08T03:49:48.573Z,202.09
2023-04-08T03:50:45.020Z,201.71
2023-04-08T03:51:39.627Z,200.24
2023-04-08T03:52:35.562Z,199.75
2023-04-08T03:53:30.740Z,197.82
2023-04-08T03:54:25.967Z,199.02
2023-04-08T03:55:21.260Z,199.51
2023-04-08T03:56:16.461Z,198.78
2023-04-08T03:57:12.289Z,199.63
2023-04-08T03:58:07.504Z,198.90
2023-04-08T03:59:02.789Z,198.30
2023-04-08T03:59:58.587Z,196.63
2023-04-08T04:00:53.859Z,196.87
2023-04-08T04:01:49.805Z,196.87
2023-04-08T04:02:45.029Z,197.23
2023-04-08T04:03:40.546Z,199.38
2023-04-08T04:04:36.140Z,200.48
2023-04-08T04:05:31.353Z,201.09
2023-04-08T04:06:26.731Z,202.46
2023-04-08T04:07:22.785Z,202.84
2023-04-08T04:08:18.037Z,204.73
2023-04-08T04:09:14.013Z,205.37
2023-04-08T04:10:09.101Z,206.93
2023-04-08T04:11:04.469Z,207.19
2023-04-08T04:11:59.567Z,206.28
2023-04-08T04:12:54.788Z,206.80
2023-04-08T04:13:50.094Z,206.28
2023-04-08T04:14:44.945Z,205.76
2023-04-08T04:15:40.099Z,204.86
2023-04-08T04:16:35.095Z,203.97
2023-04-08T04:17:30.220Z,203.97
2023-04-08T04:18:25.180Z,202.33
2023-04-08T04:20:47.699Z,182.18
2023-04-08T04:21:44.456Z,176.03
2023-04-08T04:22:39.742Z,172.57
2023-04-08T04:23:33.104Z,177.15
2023-04-08T04:24:28.340Z,181.19
2023-04-08T04:25:23.561Z,184.89
2023-04-08T04:26:18.830Z,189.26
2023-04-08T04:27:14.030Z,192.26
2023-04-08T04:28:09.289Z,191.58
2023-04-08T04:29:04.534Z,190.14
2023-04-08T04:29:59.756Z,191.81
2023-04-08T04:30:56.569Z,193.05
2023-04-08T04:31:50.168Z,195.12
2023-04-08T04:32:45.394Z,196.99
2023-04-08T04:33:40.850Z,197.35
2023-04-08T04:34:35.845Z,197.70
2023-04-08T04:35:31.291Z,199.02
2023-04-08T04:36:26.235Z,200.48
2023-04-08T04:37:21.477Z,200.48
2023-04-08T04:38:16.903Z,198.30
2023-04-08T04:39:12.077Z,196.87
2023-04-08T04:40:07.322Z,193.50
2023-04-08T04:41:02.743Z,192.60
2023-04-08T04:41:57.909Z,191.81
2023-04-08T04:42:53.190Z,191.58
2023-04-08T04:43:48.653Z,192.82
2023-04-08T04:44:43.769Z,192.48
2023-04-08T04:45:39.034Z,192.37
2023-04-08T04:46:34.354Z,195.00
2023-04-08T04:47:29.613Z,195.23
2023-04-08T04:48:25.054Z,195.00
2023-04-08T04:49:20.138Z,191.03
2023-04-08T04:50:15.494Z,192.26
2023-04-08T04:51:10.987Z,196.52
2023-04-08T04:52:06.191Z,199.75
2023-04-08T04:53:01.535Z,200.73
2023-04-08T04:53:56.988Z,144.86
2023-04-08T04:54:52.102Z,104.89
2023-04-08T04:55:47.544Z,111.62
2023-04-08T04:56:42.785Z,119.71
2023-04-08T04:57:38.216Z,134.79
2023-04-08T04:58:33.417Z,147.16
2023-04-08T04:59:28.721Z,156.54
2023-04-08T05:00:24.110Z,164.57
2023-04-08T05:01:19.645Z,169.76
2023-04-08T05:02:14.845Z,176.21
2023-04-08T05:03:10.453Z,181.78
2023-04-08T05:04:05.434Z,183.78
2023-04-08T05:05:00.895Z,186.04
2023-04-08T05:05:56.156Z,187.43
2023-04-08T05:06:51.604Z,189.70
2023-04-08T05:07:46.989Z,191.92
2023-04-08T05:08:42.440Z,193.73
2023-04-08T05:09:37.707Z,192.82
2023-04-08T05:10:33.127Z,193.62
2023-04-08T05:11:28.645Z,195.70
2023-04-08T05:12:23.942Z,199.02
2023-04-08T05:13:19.514Z,201.09
2023-04-08T05:14:14.601Z,202.21
2023-04-08T05:15:09.990Z,204.35
2023-04-08T05:16:05.424Z,204.73
2023-04-08T05:17:00.663Z,201.22
2023-04-08T05:17:56.230Z,197.94
2023-04-08T05:18:51.684Z,198.06
2023-04-08T05:19:46.894Z,200.11
2023-04-08T05:20:42.131Z,202.96
2023-04-08T05:21:37.659Z,205.76
2023-04-08T05:22:32.818Z,208.51
2023-04-08T05:23:28.375Z,212.83
2023-04-08T05:24:23.532Z,214.08
2023-04-08T05:25:18.911Z,208.37
2023-04-08T05:26:16.263Z,207.06
2023-04-08T05:27:09.609Z,206.28
2023-04-08T05:28:05.174Z,207.19
2023-04-08T05:29:00.271Z,208.11
2023-04-08T05:29:55.696Z,210.92
2023-04-08T05:30:51.085Z,213.80
2023-04-08T05:31:46.658Z,215.21
2023-04-08T05:32:41.819Z,213.25
2023-04-08T05:33:37.215Z,211.05
2023-04-08T05:34:32.503Z,210.78
2023-04-08T05:35:27.912Z,211.05
2023-04-08T05:36:23.126Z,211.60
2023-04-08T05:37:18.550Z,214.64
2023-04-08T05:38:13.951Z,218.21
2023-04-08T05:39:09.364Z,219.09
2023-04-08T05:40:04.632Z,221.60
2023-04-08T05:41:00.041Z,221.45
2023-04-08T05:41:55.579Z,218.21
2023-04-08T05:42:51.033Z,219.67
2023-04-08T05:43:46.131Z,219.53
2023-04-08T05:44:41.549Z,219.53
2023-04-08T05:45:36.928Z,220.86
2023-04-08T05:46:32.330Z,224.02
2023-04-08T05:47:27.678Z,226.81
2023-04-08T05:48:22.941Z,218.65
2023-04-08T05:49:18.326Z,218.21
2023-04-08T05:50:13.785Z,221.30
2023-04-08T05:51:09.136Z,221.30
2023-04-08T05:52:04.682Z,222.81
2023-04-08T05:53:00.135Z,223.87
2023-04-08T05:53:55.246Z,225.10
2023-04-08T05:54:50.522Z,227.60
2023-04-08T05:55:46.018Z,230.31
2023-04-08T05:56:41.296Z,229.83
2023-04-08T05:57:36.951Z,225.41
2023-04-08T05:58:32.120Z,226.97
2023-04-08T05:59:27.566Z,226.50
2023-04-08T06:00:22.923Z,224.02
2023-04-08T06:01:18.397Z,220.86
2023-04-08T06:02:13.970Z,215.63
2023-04-08T06:03:09.644Z,209.17
2023-04-08T06:04:04.862Z,204.99
2023-04-08T06:05:00.422Z,206.54
2023-04-08T06:05:55.639Z,207.85
2023-04-08T06:06:51.153Z,209.57
2023-04-08T06:07:46.932Z,212.28
2023-04-08T06:08:42.062Z,211.60
2023-04-08T06:09:37.379Z,210.24
2023-04-08T06:10:32.792Z,169.76
2023-04-08T06:11:28.185Z,166.71
2023-04-08T06:12:23.955Z,175.84
2023-04-08T06:13:19.178Z,185.01
2023-04-08T06:14:14.691Z,188.29
2023-04-08T06:15:10.169Z,193.62
2023-04-08T06:16:05.735Z,198.78
2023-04-08T06:17:01.142Z,200.60
2023-04-08T06:17:56.524Z,200.48
2023-04-08T06:18:51.945Z,197.58
2023-04-08T06:19:47.276Z,198.06
2023-04-08T06:20:42.646Z,198.42
2023-04-08T06:21:38.071Z,199.63
2023-04-08T06:22:33.426Z,198.06
2023-04-08T06:23:29.051Z,198.30
2023-04-08T06:24:24.524Z,197.94
2023-04-08T06:25:20.031Z,197.23
2023-04-08T06:26:15.510Z,195.93
2023-04-08T06:27:11.082Z,197.23
2023-04-08T06:28:06.288Z,199.87
2023-04-08T06:29:01.995Z,201.84
2023-04-08T06:29:57.335Z,204.22
2023-04-08T06:30:52.866Z,205.37
2023-04-08T06:31:48.522Z,207.06
2023-04-08T06:32:43.855Z,208.37
2023-04-08T06:33:39.207Z,209.30
2023-04-08T06:34:34.715Z,206.80
2023-04-08T06:35:29.974Z,206.54
2023-04-08T06:36:25.330Z,203.72
2023-04-08T06:37:20.905Z,202.71
2023-04-08T06:38:16.125Z,202.33
2023-04-08T06:39:11.493Z,205.50
2023-04-08T06:40:06.906Z,207.19
2023-04-08T06:41:02.257Z,204.73
2023-04-08T06:41:57.803Z,203.21
2023-04-08T06:42:53.080Z,199.38
2023-04-08T06:43:48.537Z,196.99
2023-04-08T06:44:43.953Z,196.99
2023-04-08T06:45:39.380Z,198.30
2023-04-08T06:46:34.703Z,195.81
2023-04-08T06:47:30.367Z,188.61
2023-04-08T06:48:25.559Z,186.68
2023-04-08T06:49:21.065Z,187.32
2023-04-08T06:50:16.409Z,189.92
2023-04-08T06:51:12.073Z,193.50
2023-04-08T06:52:07.613Z,191.14
2023-04-08T06:53:02.895Z,185.83
2023-04-08T06:53:58.248Z,185.83
2023-04-08T06:54:53.750Z,185.42
2023-04-08T06:55:49.325Z,183.58
2023-04-08T06:56:44.872Z,181.98
2023-04-08T06:57:40.080Z,178.67
2023-04-08T06:58:35.406Z,176.77
2023-04-08T06:59:30.881Z,180.40
2023-04-08T07:00:26.396Z,185.42
2023-04-08T07:01:21.618Z,186.36
2023-04-08T07:02:17.296Z,186.36
2023-04-08T07:03:12.655Z,187.21
2023-04-08T07:04:07.931Z,188.29
2023-04-08T07:05:03.226Z,188.61
2023-04-08T07:05:58.705Z,189.48
2023-04-08T07:06:54.217Z,190.58
2023-04-08T07:07:49.451Z,190.47
2023-04-08T07:08:44.849Z,191.14
2023-04-08T07:09:40.358Z,187.21
2023-04-08T07:10:35.835Z,191.81
2023-04-08T07:11:31.238Z,197.70
2023-04-08T07:12:26.787Z,202.09
2023-04-08T07:13:22.193Z,204.86
2023-04-08T07:14:17.415Z,207.06
2023-04-08T07:15:12.937Z,210.11
2023-04-08T07:16:08.333Z,211.60
2023-04-08T07:17:03.787Z,210.92
2023-04-08T07:17:59.140Z,209.17
2023-04-08T07:18:54.561Z,204.73
2023-04-08T07:19:49.910Z,204.10
2023-04-08T07:20:45.485Z,197.11
2023-04-08T07:21:41.019Z,179.43
2023-04-08T07:22:36.510Z,184.39
2023-04-08T07:23:31.874Z,189.92
2023-04-08T07:24:27.489Z,193.73
2023-04-08T07:25:22.690Z,198.06
2023-04-08T07:26:18.363Z,201.71
2023-04-08T07:27:13.715Z,204.73
2023-04-08T07:28:09.256Z,206.15
2023-04-08T07:29:04.753Z,206.93
2023-04-08T07:30:00.170Z,201.34
2023-04-08T07:30:55.558Z,200.24
2023-04-08T07:31:51.194Z,203.09
2023-04-08T07:32:46.356Z,207.32
2023-04-08T07:33:41.776Z,210.24
2023-04-08T07:34:37.142Z,212.83
2023-04-08T07:35:32.726Z,214.22
2023-04-08T07:36:28.239Z,217.49
2023-04-08T07:37:24.459Z,216.91
2023-04-08T07:38:19.832Z,217.63
2023-04-08T07:39:15.348Z,219.23
2023-04-08T07:40:10.869Z,219.82
2023-04-08T07:41:06.399Z,221.75
2023-04-08T07:42:01.918Z,224.02
2023-04-08T07:42:57.169Z,220.71
2023-04-08T07:43:52.525Z,220.71
2023-04-08T07:44:48.198Z,223.57
2023-04-08T07:45:43.644Z,224.95
2023-04-08T07:46:38.785Z,223.72
2023-04-08T07:47:33.781Z,218.36
2023-04-08T07:48:28.756Z,218.50
2023-04-08T07:49:23.768Z,192.26
2023-04-08T07:50:18.749Z,163.28
2023-04-08T07:51:13.883Z,169.93
2023-04-08T07:52:08.746Z,178.10
2023-04-08T07:53:08.097Z,184.79
2023-04-08T07:54:01.269Z,190.69
2023-04-08T07:54:56.246Z,195.46
2023-04-08T07:55:51.415Z,200.11
2023-04-08T07:56:46.526Z,203.34
2023-04-08T07:57:41.442Z,207.19
2023-04-08T07:58:36.494Z,196.05
2023-04-08T07:59:31.529Z,196.63
2023-04-08T08:00:26.551Z,199.75
2023-04-08T08:01:21.867Z,202.46
2023-04-08T08:02:16.883Z,208.64
2023-04-08T08:03:11.855Z,218.50
2023-04-08T08:04:06.921Z,230.15
2023-04-08T08:05:02.226Z,236.62
2023-04-08T08:05:57.673Z,239.21
2023-04-08T08:06:53.259Z,242.04
2023-04-08T08:09:19.910Z,230.80
2023-04-08T08:10:16.014Z,226.97
2023-04-08T08:11:13.547Z,226.81
2023-04-08T08:12:06.298Z,229.99
2023-04-08T08:13:01.700Z,229.67
2023-04-08T08:13:57.426Z,230.64
2023-04-08T08:14:52.880Z,231.94
2023-04-08T08:15:48.355Z,234.93
2023-04-08T08:16:43.971Z,242.21
2023-04-08T08:17:39.504Z,242.93
2023-04-08T08:18:34.877Z,243.83
2023-04-08T08:19:30.584Z,245.29
2023-04-08T08:20:26.033Z,248.45
2023-04-08T08:21:21.770Z,242.21
2023-04-08T08:22:17.176Z,236.97
2023-04-08T08:23:12.643Z,238.34
2023-04-08T08:24:08.066Z,236.97
2023-04-08T08:25:03.380Z,236.97
2023-04-08T08:25:58.810Z,236.97
2023-04-08T08:26:54.681Z,239.56
2023-04-08T08:27:49.986Z,244.93
2023-04-08T08:28:45.417Z,246.03
2023-04-08T08:29:41.141Z,248.64
2023-04-08T08:30:36.530Z,245.66
2023-04-08T08:31:32.191Z,251.88
2023-04-08T08:32:27.610Z,256.81
2023-04-08T08:33:23.162Z,261.31
2023-04-08T08:34:18.598Z,259.04
2023-04-08T08:35:14.409Z,257.42
2023-04-08T08:36:09.720Z,258.23
2023-04-08T08:37:05.185Z,267.49
2023-04-08T08:38:00.591Z,262.15
2023-04-08T08:38:56.195Z,268.14
2023-04-08T08:39:51.775Z,276.51
2023-04-08T08:40:47.255Z,281.97
2023-04-08T08:41:42.713Z,277.68
2023-04-08T08:42:38.048Z,277.44
2023-04-08T08:43:33.509Z,269.02
2023-04-08T08:44:29.024Z,260.69
2023-04-08T08:45:24.317Z,263.62
2023-04-08T08:46:20.043Z,217.92
2023-04-08T08:47:15.334Z,182.78
2023-04-08T08:48:10.919Z,183.18
2023-04-08T08:49:06.477Z,182.58
2023-04-08T08:50:01.927Z,185.31
2023-04-08T08:50:57.342Z,191.47
2023-04-08T08:51:52.774Z,195.12
2023-04-08T08:52:48.222Z,197.94
2023-04-08T08:53:43.920Z,206.80
2023-04-08T08:54:39.309Z,215.21
2023-04-08T08:55:56.822Z,222.81
2023-04-08T08:56:31.260Z,229.03
2023-04-08T08:57:25.761Z,231.12
2023-04-08T08:58:21.155Z,235.44
2023-04-08T08:59:16.719Z,246.03
2023-04-08T09:00:12.302Z,259.25
2023-04-08T09:01:07.718Z,267.05
2023-04-08T09:02:03.202Z,273.28
2023-04-08T09:02:58.790Z,278.38
2023-04-08T09:03:54.550Z,282.21
2023-04-08T09:04:49.796Z,283.19
2023-04-08T09:05:45.220Z,286.15
2023-04-08T09:06:40.706Z,292.79
2023-04-08T09:07:36.128Z,297.57
2023-04-08T09:08:31.607Z,303.07
2023-04-08T09:09:27.021Z,316.52
2023-04-08T09:10:22.462Z,318.98
2023-04-08T09:11:17.816Z,328.56
2023-04-08T09:12:13.288Z,335.96
2023-04-08T09:13:08.700Z,334.25
2023-04-08T09:14:04.163Z,323.38
2023-04-08T09:14:59.504Z,315.00
2023-04-08T09:15:54.952Z,311.70
2023-04-08T09:16:50.451Z,317.74
2023-04-08T09:17:45.906Z,338.39
2023-04-08T09:18:41.236Z,342.63
2023-04-08T09:19:36.636Z,261.52
2023-04-08T09:20:32.114Z,279.57
2023-04-08T09:21:27.752Z,321.48
2023-04-08T09:22:22.936Z,343.34
2023-04-08T09:23:18.362Z,365.12
2023-04-08T09:24:13.761Z,382.80
2023-04-08T09:25:09.349Z,415.73
2023-04-08T09:26:04.703Z,448.14
2023-04-08T09:27:00.440Z,478.70
2023-04-08T09:27:55.872Z,513.34
2023-04-08T09:28:51.470Z,520.56
2023-04-08T09:29:46.761Z,533.47
2023-04-08T09:30:42.521Z,525.89
2023-04-08T09:31:38.310Z,533.04
2023-04-08T09:32:33.569Z,559.89
2023-04-08T09:33:29.110Z,563.68
2023-04-08T09:34:24.394Z,578.35
2023-04-08T09:35:19.791Z,589.08
2023-04-08T09:36:15.272Z,604.02
2023-04-08T09:37:10.778Z,612.90
2023-04-08T09:38:06.109Z,602.92
2023-04-08T09:39:01.625Z,601.29
2023-04-08T09:39:57.322Z,622.05
2023-04-08T09:40:52.736Z,638.12
2023-04-08T09:41:48.259Z,626.13
2023-04-08T09:42:43.687Z,622.05
2023-04-08T09:43:39.179Z,545.24
2023-04-08T09:44:34.549Z,491.77
2023-04-08T09:45:29.955Z,516.12
2023-04-08T09:46:25.281Z,530.92
2023-04-08T09:47:20.855Z,527.98
2023-04-08T09:48:16.521Z,529.23
2023-04-08T09:49:11.715Z,516.92
2023-04-08T09:50:07.070Z,504.03
2023-04-08T09:51:02.434Z,467.95
2023-04-08T09:51:57.822Z,457.05
2023-04-08T09:52:53.392Z,475.63
2023-04-08T09:53:48.972Z,496.52
2023-04-08T09:54:44.136Z,513.74
2023-04-08T09:55:39.464Z,550.19
2023-04-08T09:56:35.131Z,601.84
2023-04-08T09:57:30.610Z,666.17
2023-04-08T09:58:25.973Z,727.19
2023-04-08T09:59:21.405Z,782.99
2023-04-08T10:00:16.822Z,825.60
2023-04-08T10:01:12.253Z,846.01
2023-04-08T10:02:07.863Z,866.88
2023-04-08T10:03:03.509Z,880.61
2023-04-08T10:03:58.744Z,884.69
2023-04-08T10:04:54.192Z,883.52
2023-04-08T10:05:49.734Z,859.07
2023-04-08T10:06:45.130Z,828.68
2023-04-08T10:07:40.709Z,818.02
2023-04-08T10:08:36.111Z,795.12
2023-04-08T10:09:31.525Z,771.68
2023-04-08T10:10:26.970Z,742.58
2023-04-08T10:11:22.397Z,693.17
2023-04-08T10:12:17.780Z,658.93
2023-04-08T10:13:13.307Z,651.20
2023-04-08T10:14:08.671Z,615.16
2023-04-08T10:15:04.297Z,648.67
2023-04-08T10:15:59.509Z,655.69
2023-04-08T10:16:55.058Z,681.14
2023-04-08T10:17:50.750Z,676.30
2023-04-08T10:18:45.994Z,620.89
2023-04-08T10:19:42.254Z,604.02
2023-04-08T10:20:36.780Z,596.45
2023-04-08T10:21:32.089Z,607.87
2023-04-08T10:22:27.648Z,656.33
2023-04-08T10:23:23.164Z,691.74
2023-04-08T10:24:18.413Z,762.42
2023-04-08T10:25:13.731Z,838.04
2023-04-08T10:26:09.132Z,858.52
2023-04-08T10:27:04.486Z,873.12
2023-04-08T10:28:00.076Z,845.47
2023-04-08T10:28:55.392Z,830.74
2023-04-08T10:29:50.727Z,835.42
2023-04-08T10:30:46.092Z,846.54
2023-04-08T10:31:41.632Z,829.71
2023-04-08T10:32:37.114Z,819.02
2023-04-08T10:33:32.698Z,775.71
2023-04-08T10:34:27.895Z,758.95
2023-04-08T10:35:23.462Z,748.41
2023-04-08T10:36:18.750Z,671.53
2023-04-08T10:37:14.309Z,626.72
2023-04-08T10:38:09.737Z,579.35
2023-04-08T10:39:05.304Z,551.56
2023-04-08T10:40:00.565Z,567.03
2023-04-08T10:40:56.232Z,593.27
2023-04-08T10:41:51.689Z,580.36
2023-04-08T10:42:47.251Z,607.32
2023-04-08T10:43:42.992Z,623.79
2023-04-08T10:44:38.335Z,576.84
2023-04-08T10:45:33.744Z,468.61
2023-04-08T10:46:29.548Z,449.95
2023-04-08T10:47:24.952Z,442.78
2023-04-08T10:48:20.543Z,463.08
2023-04-08T10:49:16.107Z,485.68
2023-04-08T10:50:11.315Z,501.00
2023-04-08T10:51:06.775Z,525.07
2023-04-08T10:52:02.258Z,550.65
2023-04-08T10:52:57.725Z,591.16
2023-04-08T10:53:53.315Z,608.98
2023-04-08T10:54:48.581Z,633.87
2023-04-08T10:55:44.284Z,647.41
2023-04-08T10:56:39.808Z,647.41
2023-04-08T10:57:35.137Z,644.91
2023-04-08T10:58:30.731Z,641.19
2023-04-08T10:59:26.065Z,636.90
2023-04-08T11:00:21.939Z,635.08
2023-04-08T11:01:17.543Z,660.23
2023-04-08T11:02:12.999Z,639.96
2023-04-08T11:03:08.638Z,648.67
2023-04-08T11:04:04.137Z,653.12
2023-04-08T11:04:58.910Z,661.54
2023-04-08T11:05:53.930Z,660.23
2023-04-08T11:06:48.988Z,543.91
2023-04-08T11:07:44.009Z,574.86
2023-04-08T11:08:39.223Z,592.74
2023-04-08T11:09:34.124Z,594.86
2023-04-08T11:10:29.167Z,607.32
2023-04-08T11:11:24.191Z,614.03
2023-04-08T11:12:19.295Z,633.27
2023-04-08T11:13:14.362Z,624.38
2023-04-08T11:14:09.644Z,651.20
2023-04-08T11:15:04.569Z,678.36
2023-04-08T11:15:59.661Z,724.82
2023-04-08T11:16:54.681Z,752.54
2023-04-08T11:17:50.316Z,777.52
2023-04-08T11:18:46.047Z,746.64
2023-04-08T11:19:41.317Z,724.03
2023-04-08T11:20:36.588Z,736.02
2023-04-08T11:21:32.169Z,748.32
2023-04-08T11:22:27.570Z,736.83
2023-04-08T11:23:23.212Z,747.57
2023-04-08T11:24:18.589Z,752.96
2023-04-08T11:25:14.152Z,737.65
2023-04-08T11:26:09.724Z,747.90
2023-04-08T11:27:05.198Z,694.62
2023-04-08T11:28:00.761Z,723.25
2023-04-08T11:28:56.089Z,651.20
2023-04-08T11:29:51.529Z,603.47
2023-04-08T11:30:46.579Z,611.21
2023-04-08T11:31:41.610Z,649.93
2023-04-08T11:32:42.138Z,653.12
2023-04-08T11:33:37.597Z,674.25